sensor_id;sensor_type;location;lat;lon;timestamp;temperature;humidity
10344;DHT22;5217;43.960;10.954;2022-10-26T00:01:23;21.90;99.90
10344;DHT22;5217;43.960;10.954;2022-10-26T00:03:54;21.90;99.90
10344;DHT22;5217;43.960;10.954;2022-10-26T00:06:25;21.80;99.90
10344;DHT22;5217;43.960;10.954;2022-10-26T00:08:55;21.80;99.90
10344;DHT22;5217;43.960;10.954;2022-10-26T00:11:25;21.80;99.90
10344;DHT22;5217;43.960;10.954;2022-10-26T00:13:54;21.80;99.90
10344;DHT22;5217;43.960;10.954;2022-10-26T00:16:24;21.80;99.90
10344;DHT22;5217;43.960;10.954;2022-10-26T00:18:53;21.80;99.90
10344;DHT22;5217;43.960;10.954;2022-10-26T00:21:21;21.80;99.90
10344;DHT22;5217;43.960;10.954;2022-10-26T00:23:50;21.80;99.90
10344;DHT22;5217;43.960;10.954;2022-10-26T00:26:18;21.70;99.90
10344;DHT22;5217;43.960;10.954;2022-10-26T00:28:48;21.70;99.90
10344;DHT22;5217;43.960;10.954;2022-10-26T00:31:16;21.70;99.90
10344;DHT22;5217;43.960;10.954;2022-10-26T00:33:44;21.70;99.90
10344;DHT22;5217;43.960;10.954;2022-10-26T00:36:13;21.70;99.90
10344;DHT22;5217;43.960;10.954;2022-10-26T00:38:47;21.70;99.90
10344;DHT22;5217;43.960;10.954;2022-10-26T00:41:18;21.70;99.90
10344;DHT22;5217;43.960;10.954;2022-10-26T00:43:50;21.70;99.90
10344;DHT22;5217;43.960;10.954;2022-10-26T00:46:21;21.70;99.90
10344;DHT22;5217;43.960;10.954;2022-10-26T00:48:54;21.70;99.90
10344;DHT22;5217;43.960;10.954;2022-10-26T00:51:26;21.70;99.90
10344;DHT22;5217;43.960;10.954;2022-10-26T00:54:00;21.70;99.90
10344;DHT22;5217;43.960;10.954;2022-10-26T00:56:30;21.70;99.90
10344;DHT22;5217;43.960;10.954;2022-10-26T00:59:02;21.70;99.90
10344;DHT22;5217;43.960;10.954;2022-10-26T01:01:33;21.70;99.90
10344;DHT22;5217;43.960;10.954;2022-10-26T01:04:02;21.70;99.90
10344;DHT22;5217;43.960;10.954;2022-10-26T01:06:31;21.70;99.90
10344;DHT22;5217;43.960;10.954;2022-10-26T01:09:01;21.70;99.90
10344;DHT22;5217;43.960;10.954;2022-10-26T01:11:30;21.60;99.90
10344;DHT22;5217;43.960;10.954;2022-10-26T01:14:01;21.70;99.90
10344;DHT22;5217;43.960;10.954;2022-10-26T01:16:47;21.60;99.90
10344;DHT22;5217;43.960;10.954;2022-10-26T01:19:44;21.60;99.90
10344;DHT22;5217;43.960;10.954;2022-10-26T01:22:21;21.60;99.90
10344;DHT22;5217;43.960;10.954;2022-10-26T01:25:02;21.60;99.90
10344;DHT22;5217;43.960;10.954;2022-10-26T01:27:35;21.60;99.90
10344;DHT22;5217;43.960;10.954;2022-10-26T01:33:05;21.60;99.90
10344;DHT22;5217;43.960;10.954;2022-10-26T01:35:41;21.60;99.90
10344;DHT22;5217;43.960;10.954;2022-10-26T01:38:23;21.60;99.90
10344;DHT22;5217;43.960;10.954;2022-10-26T01:40:59;21.50;99.90
10344;DHT22;5217;43.960;10.954;2022-10-26T01:43:34;21.60;99.90
10344;DHT22;5217;43.960;10.954;2022-10-26T01:46:06;21.50;99.90
10344;DHT22;5217;43.960;10.954;2022-10-26T01:48:36;21.50;99.90
10344;DHT22;5217;43.960;10.954;2022-10-26T01:51:08;21.50;99.90
10344;DHT22;5217;43.960;10.954;2022-10-26T01:53:44;21.50;99.90
10344;DHT22;5217;43.960;10.954;2022-10-26T01:56:17;21.50;99.90
10344;DHT22;5217;43.960;10.954;2022-10-26T01:59:12;21.50;99.90
10344;DHT22;5217;43.960;10.954;2022-10-26T02:01:56;21.50;99.90
10344;DHT22;5217;43.960;10.954;2022-10-26T02:04:36;21.40;99.90
10344;DHT22;5217;43.960;10.954;2022-10-26T02:07:13;21.40;99.90
10344;DHT22;5217;43.960;10.954;2022-10-26T02:09:53;21.40;99.90
10344;DHT22;5217;43.960;10.954;2022-10-26T02:12:30;21.40;99.90
10344;DHT22;5217;43.960;10.954;2022-10-26T02:15:04;21.40;99.90
10344;DHT22;5217;43.960;10.954;2022-10-26T02:17:44;21.30;99.90
10344;DHT22;5217;43.960;10.954;2022-10-26T02:20:17;21.30;99.90
10344;DHT22;5217;43.960;10.954;2022-10-26T02:22:49;21.30;99.90
10344;DHT22;5217;43.960;10.954;2022-10-26T02:25:21;21.40;99.90
10344;DHT22;5217;43.960;10.954;2022-10-26T02:27:54;21.30;99.90
10344;DHT22;5217;43.960;10.954;2022-10-26T02:30:23;21.30;99.90
10344;DHT22;5217;43.960;10.954;2022-10-26T02:32:55;21.30;99.90
10344;DHT22;5217;43.960;10.954;2022-10-26T02:35:27;21.30;99.90
10344;DHT22;5217;43.960;10.954;2022-10-26T02:37:59;21.30;99.90
10344;DHT22;5217;43.960;10.954;2022-10-26T02:40:29;21.30;99.90
10344;DHT22;5217;43.960;10.954;2022-10-26T02:43:02;21.30;99.90
10344;DHT22;5217;43.960;10.954;2022-10-26T02:45:36;21.30;99.90
10344;DHT22;5217;43.960;10.954;2022-10-26T02:48:07;21.30;99.90
10344;DHT22;5217;43.960;10.954;2022-10-26T02:50:43;21.30;99.90
10344;DHT22;5217;43.960;10.954;2022-10-26T02:53:20;21.30;99.90
10344;DHT22;5217;43.960;10.954;2022-10-26T02:55:52;21.40;99.90
10344;DHT22;5217;43.960;10.954;2022-10-26T02:58:24;21.30;99.90
10344;DHT22;5217;43.960;10.954;2022-10-26T03:00:54;21.30;99.90
10344;DHT22;5217;43.960;10.954;2022-10-26T03:03:25;21.30;99.90
10344;DHT22;5217;43.960;10.954;2022-10-26T03:05:53;21.30;99.90
10344;DHT22;5217;43.960;10.954;2022-10-26T03:08:23;21.30;99.90
10344;DHT22;5217;43.960;10.954;2022-10-26T03:10:51;21.30;99.90
10344;DHT22;5217;43.960;10.954;2022-10-26T03:13:19;21.40;99.90
10344;DHT22;5217;43.960;10.954;2022-10-26T03:15:48;21.30;99.90
10344;DHT22;5217;43.960;10.954;2022-10-26T03:18:16;21.30;99.90
10344;DHT22;5217;43.960;10.954;2022-10-26T03:20:46;21.30;99.90
10344;DHT22;5217;43.960;10.954;2022-10-26T03:23:14;21.30;99.90
10344;DHT22;5217;43.960;10.954;2022-10-26T03:25:42;21.30;99.90
10344;DHT22;5217;43.960;10.954;2022-10-26T03:28:11;21.30;99.90
10344;DHT22;5217;43.960;10.954;2022-10-26T03:30:40;21.30;99.90
10344;DHT22;5217;43.960;10.954;2022-10-26T03:33:08;21.30;99.90
10344;DHT22;5217;43.960;10.954;2022-10-26T03:35:36;21.30;99.90
10344;DHT22;5217;43.960;10.954;2022-10-26T03:38:06;21.30;99.90
10344;DHT22;5217;43.960;10.954;2022-10-26T03:40:35;21.30;99.90
10344;DHT22;5217;43.960;10.954;2022-10-26T03:43:03;21.30;99.90
10344;DHT22;5217;43.960;10.954;2022-10-26T03:45:32;21.30;99.90
10344;DHT22;5217;43.960;10.954;2022-10-26T03:48:00;21.30;99.90
10344;DHT22;5217;43.960;10.954;2022-10-26T03:50:28;21.30;99.90
10344;DHT22;5217;43.960;10.954;2022-10-26T03:52:57;21.30;99.90
10344;DHT22;5217;43.960;10.954;2022-10-26T03:55:27;21.30;99.90
10344;DHT22;5217;43.960;10.954;2022-10-26T03:57:55;21.30;99.90
10344;DHT22;5217;43.960;10.954;2022-10-26T04:00:23;21.30;99.90
10344;DHT22;5217;43.960;10.954;2022-10-26T04:02:56;21.30;99.90
10344;DHT22;5217;43.960;10.954;2022-10-26T04:05:26;21.30;99.90
10344;DHT22;5217;43.960;10.954;2022-10-26T04:07:56;21.30;99.90
10344;DHT22;5217;43.960;10.954;2022-10-26T04:10:27;21.30;99.90
10344;DHT22;5217;43.960;10.954;2022-10-26T04:12:56;21.30;99.90
10344;DHT22;5217;43.960;10.954;2022-10-26T04:15:26;21.30;99.90
10344;DHT22;5217;43.960;10.954;2022-10-26T04:17:56;21.30;99.90
10344;DHT22;5217;43.960;10.954;2022-10-26T04:20:25;21.30;99.90
10344;DHT22;5217;43.960;10.954;2022-10-26T04:22:57;21.30;99.90
10344;DHT22;5217;43.960;10.954;2022-10-26T04:25:28;21.30;99.90
10344;DHT22;5217;43.960;10.954;2022-10-26T04:27:59;21.30;99.90
10344;DHT22;5217;43.960;10.954;2022-10-26T04:30:28;21.20;99.90
10344;DHT22;5217;43.960;10.954;2022-10-26T04:32:56;21.20;99.90
10344;DHT22;5217;43.960;10.954;2022-10-26T04:35:25;21.30;99.90
10344;DHT22;5217;43.960;10.954;2022-10-26T04:37:57;21.30;99.90
10344;DHT22;5217;43.960;10.954;2022-10-26T04:40:28;21.30;99.90
10344;DHT22;5217;43.960;10.954;2022-10-26T04:42:57;21.20;99.90
10344;DHT22;5217;43.960;10.954;2022-10-26T04:45:26;21.30;99.90
10344;DHT22;5217;43.960;10.954;2022-10-26T04:48:02;21.30;99.90
10344;DHT22;5217;43.960;10.954;2022-10-26T04:50:31;21.20;99.90
10344;DHT22;5217;43.960;10.954;2022-10-26T04:53:00;21.20;99.90
10344;DHT22;5217;43.960;10.954;2022-10-26T04:55:29;21.20;99.90
10344;DHT22;5217;43.960;10.954;2022-10-26T04:57:58;21.20;99.90
10344;DHT22;5217;43.960;10.954;2022-10-26T05:00:28;21.20;99.90
10344;DHT22;5217;43.960;10.954;2022-10-26T05:02:59;21.30;99.90
10344;DHT22;5217;43.960;10.954;2022-10-26T05:05:29;21.30;99.90
10344;DHT22;5217;43.960;10.954;2022-10-26T05:07:58;21.20;99.90
10344;DHT22;5217;43.960;10.954;2022-10-26T05:10:27;21.20;99.90
10344;DHT22;5217;43.960;10.954;2022-10-26T05:12:58;21.20;99.90
10344;DHT22;5217;43.960;10.954;2022-10-26T05:15:27;21.20;99.90
10344;DHT22;5217;43.960;10.954;2022-10-26T05:17:56;21.20;99.90
10344;DHT22;5217;43.960;10.954;2022-10-26T05:20:26;21.20;99.90
10344;DHT22;5217;43.960;10.954;2022-10-26T05:22:57;21.20;99.90
10344;DHT22;5217;43.960;10.954;2022-10-26T05:25:28;21.20;99.90
10344;DHT22;5217;43.960;10.954;2022-10-26T05:27:58;21.20;99.90
10344;DHT22;5217;43.960;10.954;2022-10-26T05:30:27;21.20;99.90
10344;DHT22;5217;43.960;10.954;2022-10-26T05:32:57;21.20;99.90
10344;DHT22;5217;43.960;10.954;2022-10-26T05:35:26;21.20;99.90
10344;DHT22;5217;43.960;10.954;2022-10-26T05:37:54;21.20;99.90
10344;DHT22;5217;43.960;10.954;2022-10-26T05:40:23;21.20;99.90
10344;DHT22;5217;43.960;10.954;2022-10-26T05:42:51;21.20;99.90
10344;DHT22;5217;43.960;10.954;2022-10-26T05:45:21;21.20;99.90
10344;DHT22;5217;43.960;10.954;2022-10-26T05:47:49;21.20;99.90
10344;DHT22;5217;43.960;10.954;2022-10-26T05:50:18;21.20;99.90
10344;DHT22;5217;43.960;10.954;2022-10-26T05:52:47;21.20;99.90
10344;DHT22;5217;43.960;10.954;2022-10-26T05:55:17;21.20;99.90
10344;DHT22;5217;43.960;10.954;2022-10-26T05:57:46;21.30;99.90
10344;DHT22;5217;43.960;10.954;2022-10-26T06:00:17;21.20;99.90
10344;DHT22;5217;43.960;10.954;2022-10-26T06:02:59;21.20;99.90
10344;DHT22;5217;43.960;10.954;2022-10-26T06:05:36;21.30;99.90
10344;DHT22;5217;43.960;10.954;2022-10-26T06:08:08;21.30;99.90
10344;DHT22;5217;43.960;10.954;2022-10-26T06:10:38;21.20;99.90
10344;DHT22;5217;43.960;10.954;2022-10-26T06:13:07;21.20;99.90
10344;DHT22;5217;43.960;10.954;2022-10-26T06:15:41;21.30;99.90
10344;DHT22;5217;43.960;10.954;2022-10-26T06:18:22;21.20;99.90
10344;DHT22;5217;43.960;10.954;2022-10-26T06:21:13;21.20;99.90
10344;DHT22;5217;43.960;10.954;2022-10-26T06:23:52;21.20;99.90
10344;DHT22;5217;43.960;10.954;2022-10-26T06:26:31;21.20;99.90
10344;DHT22;5217;43.960;10.954;2022-10-26T06:29:12;21.20;99.90
10344;DHT22;5217;43.960;10.954;2022-10-26T06:31:44;21.20;99.90
10344;DHT22;5217;43.960;10.954;2022-10-26T06:34:20;21.20;99.90
10344;DHT22;5217;43.960;10.954;2022-10-26T06:36:50;21.20;99.90
10344;DHT22;5217;43.960;10.954;2022-10-26T06:39:20;21.20;99.90
10344;DHT22;5217;43.960;10.954;2022-10-26T06:41:49;21.30;99.90
10344;DHT22;5217;43.960;10.954;2022-10-26T06:44:21;21.20;99.90
10344;DHT22;5217;43.960;10.954;2022-10-26T06:46:55;21.20;99.90
10344;DHT22;5217;43.960;10.954;2022-10-26T06:49:30;21.30;99.90
10344;DHT22;5217;43.960;10.954;2022-10-26T06:52:02;21.30;99.90
10344;DHT22;5217;43.960;10.954;2022-10-26T06:54:46;21.30;99.90
10344;DHT22;5217;43.960;10.954;2022-10-26T06:57:16;21.30;99.90
10344;DHT22;5217;43.960;10.954;2022-10-26T06:59:48;21.30;99.90
10344;DHT22;5217;43.960;10.954;2022-10-26T07:02:18;21.30;99.90
10344;DHT22;5217;43.960;10.954;2022-10-26T07:04:48;21.20;99.90
10344;DHT22;5217;43.960;10.954;2022-10-26T07:07:17;21.30;99.90
10344;DHT22;5217;43.960;10.954;2022-10-26T07:09:47;21.30;99.90
10344;DHT22;5217;43.960;10.954;2022-10-26T07:12:15;21.20;99.90
10344;DHT22;5217;43.960;10.954;2022-10-26T07:14:43;21.30;99.90
10344;DHT22;5217;43.960;10.954;2022-10-26T07:17:12;21.30;99.90
10344;DHT22;5217;43.960;10.954;2022-10-26T07:19:40;21.30;99.90
10344;DHT22;5217;43.960;10.954;2022-10-26T07:22:12;21.30;99.90
10344;DHT22;5217;43.960;10.954;2022-10-26T07:24:40;21.30;99.90
10344;DHT22;5217;43.960;10.954;2022-10-26T07:27:08;21.30;99.90
10344;DHT22;5217;43.960;10.954;2022-10-26T07:29:37;21.30;99.90
10344;DHT22;5217;43.960;10.954;2022-10-26T07:32:06;21.30;99.90
10344;DHT22;5217;43.960;10.954;2022-10-26T07:34:34;21.30;99.90
10344;DHT22;5217;43.960;10.954;2022-10-26T07:37:03;21.30;99.90
10344;DHT22;5217;43.960;10.954;2022-10-26T07:39:32;21.30;99.90
10344;DHT22;5217;43.960;10.954;2022-10-26T07:42:01;21.30;99.90
10344;DHT22;5217;43.960;10.954;2022-10-26T07:44:29;21.40;99.90
10344;DHT22;5217;43.960;10.954;2022-10-26T07:46:57;21.40;99.90
10344;DHT22;5217;43.960;10.954;2022-10-26T07:49:26;21.30;99.90
10344;DHT22;5217;43.960;10.954;2022-10-26T07:51:54;21.40;99.90
10344;DHT22;5217;43.960;10.954;2022-10-26T07:54:23;21.30;99.90
10344;DHT22;5217;43.960;10.954;2022-10-26T07:56:52;21.30;99.90
10344;DHT22;5217;43.960;10.954;2022-10-26T07:59:21;21.40;99.90
10344;DHT22;5217;43.960;10.954;2022-10-26T08:01:49;21.40;99.90
10344;DHT22;5217;43.960;10.954;2022-10-26T08:04:17;21.50;99.90
10344;DHT22;5217;43.960;10.954;2022-10-26T08:06:46;21.40;99.90
10344;DHT22;5217;43.960;10.954;2022-10-26T08:09:14;21.50;99.90
10344;DHT22;5217;43.960;10.954;2022-10-26T08:11:42;21.50;99.90
10344;DHT22;5217;43.960;10.954;2022-10-26T08:14:12;21.50;99.90
10344;DHT22;5217;43.960;10.954;2022-10-26T08:16:41;21.60;99.90
10344;DHT22;5217;43.960;10.954;2022-10-26T08:19:09;21.60;99.90
10344;DHT22;5217;43.960;10.954;2022-10-26T08:21:37;21.60;99.90
10344;DHT22;5217;43.960;10.954;2022-10-26T08:24:07;21.60;99.90
10344;DHT22;5217;43.960;10.954;2022-10-26T08:26:35;21.70;99.90
10344;DHT22;5217;43.960;10.954;2022-10-26T08:29:03;21.70;99.90
10344;DHT22;5217;43.960;10.954;2022-10-26T08:31:34;21.70;99.90
10344;DHT22;5217;43.960;10.954;2022-10-26T08:34:02;21.80;99.90
10344;DHT22;5217;43.960;10.954;2022-10-26T08:36:31;21.80;99.90
10344;DHT22;5217;43.960;10.954;2022-10-26T08:38:59;21.80;99.90
10344;DHT22;5217;43.960;10.954;2022-10-26T08:41:34;21.80;99.90
10344;DHT22;5217;43.960;10.954;2022-10-26T08:44:09;21.80;99.90
10344;DHT22;5217;43.960;10.954;2022-10-26T08:46:45;21.80;99.90
10344;DHT22;5217;43.960;10.954;2022-10-26T08:49:19;21.90;99.90
10344;DHT22;5217;43.960;10.954;2022-10-26T08:51:53;21.90;99.90
10344;DHT22;5217;43.960;10.954;2022-10-26T08:54:32;21.90;99.90
10344;DHT22;5217;43.960;10.954;2022-10-26T08:57:09;21.90;99.90
10344;DHT22;5217;43.960;10.954;2022-10-26T08:59:45;21.90;99.90
10344;DHT22;5217;43.960;10.954;2022-10-26T09:02:16;21.90;99.90
10344;DHT22;5217;43.960;10.954;2022-10-26T09:04:45;22.00;99.90
10344;DHT22;5217;43.960;10.954;2022-10-26T09:07:33;22.00;99.90
10344;DHT22;5217;43.960;10.954;2022-10-26T09:10:15;22.10;99.90
10344;DHT22;5217;43.960;10.954;2022-10-26T09:12:54;22.10;99.90
10344;DHT22;5217;43.960;10.954;2022-10-26T09:15:30;22.10;99.90
10344;DHT22;5217;43.960;10.954;2022-10-26T09:18:11;22.20;99.90
10344;DHT22;5217;43.960;10.954;2022-10-26T09:23:59;22.30;99.90
10344;DHT22;5217;43.960;10.954;2022-10-26T09:26:31;22.30;99.90
10344;DHT22;5217;43.960;10.954;2022-10-26T09:29:02;22.40;99.90
10344;DHT22;5217;43.960;10.954;2022-10-26T09:31:37;22.40;99.90
10344;DHT22;5217;43.960;10.954;2022-10-26T09:34:17;22.40;99.90
10344;DHT22;5217;43.960;10.954;2022-10-26T09:36:48;22.40;99.90
10344;DHT22;5217;43.960;10.954;2022-10-26T09:39:22;22.50;99.90
10344;DHT22;5217;43.960;10.954;2022-10-26T09:41:56;22.50;99.90
10344;DHT22;5217;43.960;10.954;2022-10-26T09:44:28;22.60;99.90
10344;DHT22;5217;43.960;10.954;2022-10-26T09:47:01;22.60;99.90
10344;DHT22;5217;43.960;10.954;2022-10-26T09:49:38;22.70;99.90
10344;DHT22;5217;43.960;10.954;2022-10-26T09:52:08;22.70;99.90
10344;DHT22;5217;43.960;10.954;2022-10-26T09:54:42;22.70;99.90
10344;DHT22;5217;43.960;10.954;2022-10-26T09:57:14;22.70;99.90
10344;DHT22;5217;43.960;10.954;2022-10-26T09:59:45;22.80;99.90
10344;DHT22;5217;43.960;10.954;2022-10-26T10:02:32;22.80;99.90
10344;DHT22;5217;43.960;10.954;2022-10-26T10:05:15;22.90;99.90
10344;DHT22;5217;43.960;10.954;2022-10-26T10:08:15;23.00;99.90
10344;DHT22;5217;43.960;10.954;2022-10-26T10:10:59;23.00;99.90
10344;DHT22;5217;43.960;10.954;2022-10-26T10:13:30;23.10;99.90
10344;DHT22;5217;43.960;10.954;2022-10-26T10:16:04;23.10;99.90
10344;DHT22;5217;43.960;10.954;2022-10-26T10:18:33;23.20;99.90
10344;DHT22;5217;43.960;10.954;2022-10-26T10:21:04;23.30;99.90
10344;DHT22;5217;43.960;10.954;2022-10-26T10:23:34;23.30;99.90
10344;DHT22;5217;43.960;10.954;2022-10-26T10:26:07;23.40;99.90
10344;DHT22;5217;43.960;10.954;2022-10-26T10:28:39;23.40;99.90
10344;DHT22;5217;43.960;10.954;2022-10-26T10:31:19;23.40;99.90
10344;DHT22;5217;43.960;10.954;2022-10-26T10:33:48;23.50;99.90
10344;DHT22;5217;43.960;10.954;2022-10-26T10:36:19;23.50;99.90
10344;DHT22;5217;43.960;10.954;2022-10-26T10:38:49;23.60;99.90
10344;DHT22;5217;43.960;10.954;2022-10-26T10:41:21;23.60;99.90
10344;DHT22;5217;43.960;10.954;2022-10-26T10:43:54;23.70;99.90
10344;DHT22;5217;43.960;10.954;2022-10-26T10:46:24;23.70;99.90
10344;DHT22;5217;43.960;10.954;2022-10-26T10:49:00;23.80;99.90
10344;DHT22;5217;43.960;10.954;2022-10-26T10:51:35;23.80;99.90
10344;DHT22;5217;43.960;10.954;2022-10-26T10:54:16;23.90;99.90
10344;DHT22;5217;43.960;10.954;2022-10-26T10:56:50;24.00;99.90
10344;DHT22;5217;43.960;10.954;2022-10-26T10:59:49;24.00;99.90
10344;DHT22;5217;43.960;10.954;2022-10-26T11:05:49;24.10;99.90
10344;DHT22;5217;43.960;10.954;2022-10-26T11:08:27;24.20;99.90
10344;DHT22;5217;43.960;10.954;2022-10-26T11:11:00;24.30;99.90
10344;DHT22;5217;43.960;10.954;2022-10-26T11:13:34;24.30;99.90
10344;DHT22;5217;43.960;10.954;2022-10-26T11:16:09;24.40;99.90
10344;DHT22;5217;43.960;10.954;2022-10-26T11:18:42;24.40;99.90
10344;DHT22;5217;43.960;10.954;2022-10-26T11:21:18;24.40;99.90
10344;DHT22;5217;43.960;10.954;2022-10-26T11:23:53;24.50;99.90
10344;DHT22;5217;43.960;10.954;2022-10-26T11:26:28;24.50;99.90
10344;DHT22;5217;43.960;10.954;2022-10-26T11:29:01;24.50;99.90
10344;DHT22;5217;43.960;10.954;2022-10-26T11:31:33;24.60;99.90
10344;DHT22;5217;43.960;10.954;2022-10-26T11:34:15;24.70;99.90
10344;DHT22;5217;43.960;10.954;2022-10-26T11:36:53;24.70;99.90
10344;DHT22;5217;43.960;10.954;2022-10-26T11:39:30;24.80;99.90
10344;DHT22;5217;43.960;10.954;2022-10-26T11:42:03;24.90;99.90
10344;DHT22;5217;43.960;10.954;2022-10-26T11:44:38;25.00;99.90
10344;DHT22;5217;43.960;10.954;2022-10-26T11:47:13;25.00;99.90
10344;DHT22;5217;43.960;10.954;2022-10-26T11:49:45;25.10;99.90
10344;DHT22;5217;43.960;10.954;2022-10-26T11:52:19;25.10;99.90
10344;DHT22;5217;43.960;10.954;2022-10-26T11:54:53;25.20;99.90
10344;DHT22;5217;43.960;10.954;2022-10-26T11:57:22;25.30;99.90
10344;DHT22;5217;43.960;10.954;2022-10-26T11:59:53;25.30;99.90
10344;DHT22;5217;43.960;10.954;2022-10-26T12:02:24;25.40;99.90
10344;DHT22;5217;43.960;10.954;2022-10-26T12:04:56;25.40;99.90
10344;DHT22;5217;43.960;10.954;2022-10-26T12:07:29;25.50;99.90
10344;DHT22;5217;43.960;10.954;2022-10-26T12:10:02;25.50;99.90
10344;DHT22;5217;43.960;10.954;2022-10-26T12:12:34;25.60;99.90
10344;DHT22;5217;43.960;10.954;2022-10-26T12:15:15;25.70;99.90
10344;DHT22;5217;43.960;10.954;2022-10-26T12:17:49;25.70;99.90
10344;DHT22;5217;43.960;10.954;2022-10-26T12:20:53;25.80;99.90
10344;DHT22;5217;43.960;10.954;2022-10-26T12:23:36;25.80;99.90
10344;DHT22;5217;43.960;10.954;2022-10-26T12:26:52;25.80;99.90
10344;DHT22;5217;43.960;10.954;2022-10-26T12:29:36;25.90;99.90
10344;DHT22;5217;43.960;10.954;2022-10-26T12:35:29;26.00;99.90
10344;DHT22;5217;43.960;10.954;2022-10-26T12:37:59;26.10;99.90
10344;DHT22;5217;43.960;10.954;2022-10-26T12:40:41;26.10;99.90
10344;DHT22;5217;43.960;10.954;2022-10-26T12:43:37;26.10;99.90
10344;DHT22;5217;43.960;10.954;2022-10-26T12:46:41;26.10;99.90
10344;DHT22;5217;43.960;10.954;2022-10-26T12:52:30;26.10;99.90
10344;DHT22;5217;43.960;10.954;2022-10-26T12:55:26;26.10;99.90
10344;DHT22;5217;43.960;10.954;2022-10-26T12:58:21;26.20;99.90
10344;DHT22;5217;43.960;10.954;2022-10-26T13:06:55;26.30;99.90
10344;DHT22;5217;43.960;10.954;2022-10-26T13:09:28;26.40;99.90
10344;DHT22;5217;43.960;10.954;2022-10-26T13:12:01;26.40;99.90
10344;DHT22;5217;43.960;10.954;2022-10-26T13:14:35;26.40;99.90
10344;DHT22;5217;43.960;10.954;2022-10-26T13:17:23;26.40;99.90
10344;DHT22;5217;43.960;10.954;2022-10-26T13:19:57;26.40;99.90
10344;DHT22;5217;43.960;10.954;2022-10-26T13:22:26;26.40;99.90
10344;DHT22;5217;43.960;10.954;2022-10-26T13:24:57;26.40;99.90
10344;DHT22;5217;43.960;10.954;2022-10-26T13:27:43;26.50;99.90
10344;DHT22;5217;43.960;10.954;2022-10-26T13:30:40;26.50;99.90
10344;DHT22;5217;43.960;10.954;2022-10-26T13:33:21;26.50;99.90
10344;DHT22;5217;43.960;10.954;2022-10-26T13:35:57;26.60;99.90
10344;DHT22;5217;43.960;10.954;2022-10-26T13:38:31;26.60;99.90
10344;DHT22;5217;43.960;10.954;2022-10-26T13:41:06;26.60;99.90
10344;DHT22;5217;43.960;10.954;2022-10-26T13:43:36;26.60;99.90
10344;DHT22;5217;43.960;10.954;2022-10-26T13:46:04;26.60;99.90
10344;DHT22;5217;43.960;10.954;2022-10-26T13:48:37;26.60;99.90
10344;DHT22;5217;43.960;10.954;2022-10-26T13:51:19;26.70;99.90
10344;DHT22;5217;43.960;10.954;2022-10-26T13:53:51;26.60;99.90
10344;DHT22;5217;43.960;10.954;2022-10-26T13:56:28;26.70;99.90
10344;DHT22;5217;43.960;10.954;2022-10-26T13:59:00;26.70;99.90
10344;DHT22;5217;43.960;10.954;2022-10-26T14:01:30;26.70;99.90
10344;DHT22;5217;43.960;10.954;2022-10-26T14:03:58;26.70;99.90
10344;DHT22;5217;43.960;10.954;2022-10-26T14:06:31;26.60;99.90
10344;DHT22;5217;43.960;10.954;2022-10-26T14:09:02;26.60;99.90
10344;DHT22;5217;43.960;10.954;2022-10-26T14:11:33;26.60;99.90
10344;DHT22;5217;43.960;10.954;2022-10-26T14:14:03;26.60;99.90
10344;DHT22;5217;43.960;10.954;2022-10-26T14:16:32;26.60;99.90
10344;DHT22;5217;43.960;10.954;2022-10-26T14:19:01;26.60;99.90
10344;DHT22;5217;43.960;10.954;2022-10-26T14:21:31;26.60;99.90
10344;DHT22;5217;43.960;10.954;2022-10-26T14:24:00;26.60;99.90
10344;DHT22;5217;43.960;10.954;2022-10-26T14:26:38;26.50;99.90
10344;DHT22;5217;43.960;10.954;2022-10-26T14:29:15;26.50;99.90
10344;DHT22;5217;43.960;10.954;2022-10-26T14:31:44;26.60;99.90
10344;DHT22;5217;43.960;10.954;2022-10-26T14:34:12;26.50;99.90
10344;DHT22;5217;43.960;10.954;2022-10-26T14:36:46;26.50;99.90
10344;DHT22;5217;43.960;10.954;2022-10-26T14:39:19;26.60;99.90
10344;DHT22;5217;43.960;10.954;2022-10-26T14:41:52;26.60;99.90
10344;DHT22;5217;43.960;10.954;2022-10-26T14:44:22;26.50;99.90
10344;DHT22;5217;43.960;10.954;2022-10-26T14:46:51;26.50;99.90
10344;DHT22;5217;43.960;10.954;2022-10-26T14:49:22;26.50;99.90
10344;DHT22;5217;43.960;10.954;2022-10-26T14:51:57;26.50;99.90
10344;DHT22;5217;43.960;10.954;2022-10-26T14:54:26;26.50;99.90
10344;DHT22;5217;43.960;10.954;2022-10-26T14:56:55;26.40;99.90
10344;DHT22;5217;43.960;10.954;2022-10-26T14:59:26;26.40;99.90
10344;DHT22;5217;43.960;10.954;2022-10-26T15:01:56;26.40;99.90
10344;DHT22;5217;43.960;10.954;2022-10-26T15:04:32;26.40;99.90
10344;DHT22;5217;43.960;10.954;2022-10-26T15:07:07;26.40;99.90
10344;DHT22;5217;43.960;10.954;2022-10-26T15:09:42;26.40;99.90
10344;DHT22;5217;43.960;10.954;2022-10-26T15:12:19;26.40;99.90
10344;DHT22;5217;43.960;10.954;2022-10-26T15:14:48;26.30;99.90
10344;DHT22;5217;43.960;10.954;2022-10-26T15:17:21;26.30;99.90
10344;DHT22;5217;43.960;10.954;2022-10-26T15:19:51;26.30;99.90
10344;DHT22;5217;43.960;10.954;2022-10-26T15:22:23;26.30;99.90
10344;DHT22;5217;43.960;10.954;2022-10-26T15:24:59;26.30;99.90
10344;DHT22;5217;43.960;10.954;2022-10-26T15:27:28;26.20;99.90
10344;DHT22;5217;43.960;10.954;2022-10-26T15:30:19;26.20;99.90
10344;DHT22;5217;43.960;10.954;2022-10-26T15:32:48;26.20;99.90
10344;DHT22;5217;43.960;10.954;2022-10-26T15:35:28;26.10;99.90
10344;DHT22;5217;43.960;10.954;2022-10-26T15:37:58;26.10;99.90
10344;DHT22;5217;43.960;10.954;2022-10-26T15:40:28;26.10;99.90
10344;DHT22;5217;43.960;10.954;2022-10-26T15:42:59;26.00;99.90
10344;DHT22;5217;43.960;10.954;2022-10-26T15:45:30;26.00;99.90
10344;DHT22;5217;43.960;10.954;2022-10-26T15:48:16;26.00;99.90
10344;DHT22;5217;43.960;10.954;2022-10-26T15:50:45;26.00;99.90
10344;DHT22;5217;43.960;10.954;2022-10-26T15:53:18;26.00;99.90
10344;DHT22;5217;43.960;10.954;2022-10-26T15:55:48;25.90;99.90
10344;DHT22;5217;43.960;10.954;2022-10-26T15:58:17;25.90;99.90
10344;DHT22;5217;43.960;10.954;2022-10-26T16:00:45;25.80;99.90
10344;DHT22;5217;43.960;10.954;2022-10-26T16:03:17;25.80;99.90
10344;DHT22;5217;43.960;10.954;2022-10-26T16:05:47;25.80;99.90
10344;DHT22;5217;43.960;10.954;2022-10-26T16:08:18;25.80;99.90
10344;DHT22;5217;43.960;10.954;2022-10-26T16:10:47;25.70;99.90
10344;DHT22;5217;43.960;10.954;2022-10-26T16:13:17;25.70;99.90
10344;DHT22;5217;43.960;10.954;2022-10-26T16:15:45;25.60;99.90
10344;DHT22;5217;43.960;10.954;2022-10-26T16:18:14;25.60;99.90
10344;DHT22;5217;43.960;10.954;2022-10-26T16:20:44;25.60;99.90
10344;DHT22;5217;43.960;10.954;2022-10-26T16:23:13;25.50;99.90
10344;DHT22;5217;43.960;10.954;2022-10-26T16:25:44;25.50;99.90
10344;DHT22;5217;43.960;10.954;2022-10-26T16:28:15;25.50;99.90